createdAt,value
2018-03-23T00:00:21.775Z,0
2018-03-23T00:01:22.384Z,0
2018-03-23T00:02:22.964Z,0
2018-03-23T00:03:23.560Z,0
2018-03-23T00:04:24.144Z,0
2018-03-23T00:05:24.741Z,0
2018-03-23T00:06:25.346Z,0
2018-03-23T00:07:25.945Z,0
2018-03-23T00:08:26.546Z,0
2018-03-23T00:09:27.134Z,0
2018-03-23T00:10:27.724Z,0
2018-03-23T00:11:28.359Z,0
2018-03-23T00:12:28.954Z,0
2018-03-23T00:13:29.544Z,0
2018-03-23T00:14:30.136Z,0
2018-03-23T00:15:30.720Z,0
2018-03-23T00:16:31.320Z,0
2018-03-23T00:17:31.909Z,0
2018-03-23T00:18:32.547Z,0
2018-03-23T00:19:33.146Z,0
2018-03-23T00:20:33.735Z,0
2018-03-23T00:21:34.339Z,0
2018-03-23T00:22:34.930Z,0
2018-03-23T00:23:35.529Z,0
2018-03-23T00:24:36.126Z,0
2018-03-23T00:25:36.738Z,0
2018-03-23T00:26:37.328Z,0
2018-03-23T00:27:37.923Z,0
2018-03-23T00:28:38.513Z,0
2018-03-23T00:29:39.143Z,0
2018-03-23T00:30:39.714Z,0
2018-03-23T00:31:40.344Z,0
2018-03-23T00:32:40.936Z,0
2018-03-23T00:33:41.585Z,0
2018-03-23T00:34:42.149Z,0
2018-03-23T00:35:42.747Z,0
2018-03-23T00:36:43.341Z,0
2018-03-23T00:37:43.938Z,0
2018-03-23T00:38:44.543Z,0
2018-03-23T00:39:45.134Z,0
2018-03-23T00:40:45.732Z,0
2018-03-23T00:41:46.329Z,0
2018-03-23T00:42:46.921Z,0
2018-03-23T00:43:47.510Z,0
2018-03-23T00:44:48.100Z,0
2018-03-23T00:45:48.696Z,0
2018-03-23T00:46:49.286Z,0
2018-03-23T00:47:49.891Z,0
2018-03-23T00:48:50.485Z,0
2018-03-23T00:49:51.074Z,0
2018-03-23T00:50:51.670Z,0
2018-03-23T00:51:52.268Z,0
2018-03-23T00:52:52.858Z,0
2018-03-23T00:53:53.455Z,0
2018-03-23T00:54:54.044Z,0
2018-03-23T00:55:54.634Z,0
2018-03-23T00:56:55.233Z,0
2018-03-23T00:57:55.832Z,0
2018-03-23T00:58:56.433Z,0
2018-03-23T00:59:57.031Z,0
2018-03-23T01:01:41.833Z,0
2018-03-23T01:02:42.436Z,0
2018-03-23T01:03:43.041Z,0
2018-03-23T01:04:43.631Z,0
2018-03-23T01:05:44.224Z,0
2018-03-23T01:06:44.810Z,0
2018-03-23T01:07:45.403Z,0
2018-03-23T01:08:45.990Z,0
2018-03-23T01:09:46.577Z,0
2018-03-23T01:10:47.180Z,0
2018-03-23T01:11:47.764Z,0
2018-03-23T01:12:48.355Z,0
2018-03-23T01:13:48.947Z,0
2018-03-23T01:14:49.546Z,0
2018-03-23T01:15:50.136Z,0
2018-03-23T01:16:50.733Z,0
2018-03-23T01:17:51.335Z,0
2018-03-23T01:18:51.920Z,0
2018-03-23T01:19:52.509Z,0
2018-03-23T01:20:53.106Z,0
2018-03-23T01:21:53.705Z,0
2018-03-23T01:22:54.305Z,0
2018-03-23T01:23:54.892Z,0
2018-03-23T01:24:55.491Z,0
2018-03-23T01:25:56.081Z,0
2018-03-23T01:26:56.670Z,0
2018-03-23T01:27:57.260Z,0
2018-03-23T01:28:57.858Z,0
2018-03-23T01:29:58.450Z,0
2018-03-23T01:30:59.038Z,0
2018-03-23T01:31:59.630Z,0
2018-03-23T01:33:00.228Z,0
2018-03-23T01:34:00.818Z,0
2018-03-23T01:35:01.408Z,0
2018-03-23T01:36:01.998Z,0
2018-03-23T01:37:02.586Z,0
2018-03-23T01:38:03.184Z,0
2018-03-23T01:39:03.779Z,0
2018-03-23T01:40:04.367Z,0
2018-03-23T01:41:04.962Z,0
2018-03-23T01:42:05.561Z,0
2018-03-23T01:43:06.150Z,0
2018-03-23T01:44:06.739Z,0
2018-03-23T01:45:07.336Z,0
2018-03-23T01:46:07.932Z,0
2018-03-23T01:47:08.529Z,0
2018-03-23T01:48:09.129Z,0
2018-03-23T01:49:09.719Z,0
2018-03-23T01:50:10.315Z,0
2018-03-23T01:51:10.902Z,0
2018-03-23T01:52:11.498Z,0
2018-03-23T01:53:12.092Z,0
2018-03-23T01:54:12.687Z,0
2018-03-23T01:55:13.277Z,0
2018-03-23T01:56:13.868Z,0
2018-03-23T01:57:14.521Z,0
2018-03-23T01:58:15.062Z,0
2018-03-23T01:59:15.651Z,0
2018-03-23T02:00:16.255Z,0
2018-03-23T02:01:16.848Z,0
2018-03-23T02:02:17.437Z,0
2018-03-23T02:03:18.026Z,0
2018-03-23T02:04:18.613Z,0
2018-03-23T02:05:19.209Z,0
2018-03-23T02:06:19.806Z,0
2018-03-23T02:07:20.404Z,0
2018-03-23T02:08:21.004Z,0
2018-03-23T02:09:21.599Z,0
2018-03-23T02:10:22.193Z,0
2018-03-23T02:11:22.788Z,0
2018-03-23T02:12:23.375Z,0
2018-03-23T02:13:23.968Z,0
2018-03-23T02:14:24.561Z,0
2018-03-23T02:15:25.167Z,0
2018-03-23T02:16:25.749Z,0
2018-03-23T02:17:26.332Z,0
2018-03-23T02:18:26.926Z,0
2018-03-23T02:19:27.517Z,0
2018-03-23T02:20:28.118Z,0
2018-03-23T02:21:28.710Z,0
2018-03-23T02:22:29.303Z,0
2018-03-23T02:23:29.895Z,0
2018-03-23T02:24:30.488Z,0
2018-03-23T02:25:31.086Z,0
2018-03-23T02:26:31.675Z,0
2018-03-23T02:27:32.277Z,0
2018-03-23T02:28:32.869Z,0
2018-03-23T02:29:33.461Z,0
2018-03-23T02:30:34.056Z,0
2018-03-23T02:31:34.649Z,0
2018-03-23T02:32:35.247Z,0
2018-03-23T02:33:35.844Z,0
2018-03-23T02:34:36.434Z,0
2018-03-23T02:35:37.026Z,0
2018-03-23T02:36:37.621Z,0
2018-03-23T02:37:38.210Z,0
2018-03-23T02:38:38.803Z,0
2018-03-23T02:39:39.397Z,0
2018-03-23T02:40:39.997Z,0
2018-03-23T02:41:40.592Z,0
2018-03-23T02:42:41.181Z,0
2018-03-23T02:43:41.778Z,0
2018-03-23T02:44:42.373Z,0
2018-03-23T02:45:42.971Z,0
2018-03-23T02:46:43.571Z,0
2018-03-23T02:47:44.167Z,0
2018-03-23T02:48:44.764Z,0
2018-03-23T02:49:45.353Z,0
2018-03-23T02:50:45.942Z,0
2018-03-23T02:51:46.531Z,0
2018-03-23T02:52:47.130Z,0
2018-03-23T02:53:47.726Z,0
2018-03-23T02:54:48.328Z,0
2018-03-23T02:55:48.917Z,0
2018-03-23T02:56:49.514Z,0
2018-03-23T02:57:50.115Z,0
2018-03-23T02:58:50.707Z,0
2018-03-23T02:59:51.307Z,0
2018-03-23T03:00:51.903Z,0
2018-03-23T03:01:52.497Z,0
2018-03-23T03:02:53.093Z,0
2018-03-23T03:03:53.691Z,0
2018-03-23T03:04:54.300Z,0
2018-03-23T03:05:54.884Z,0
2018-03-23T03:06:55.481Z,0
2018-03-23T03:07:56.077Z,0
2018-03-23T03:08:56.665Z,0
2018-03-23T03:09:57.256Z,0
2018-03-23T03:10:57.851Z,0
2018-03-23T03:11:58.454Z,0
2018-03-23T03:12:59.047Z,0
2018-03-23T03:13:59.647Z,0
2018-03-23T03:15:00.240Z,0
2018-03-23T03:16:00.837Z,0
2018-03-23T03:17:01.434Z,0
2018-03-23T03:18:02.020Z,0
2018-03-23T03:19:02.619Z,0
2018-03-23T03:20:03.216Z,0
2018-03-23T03:21:03.812Z,0
2018-03-23T03:22:04.408Z,0
2018-03-23T03:23:05.000Z,0
2018-03-23T03:24:05.603Z,0
2018-03-23T03:25:06.196Z,0
2018-03-23T03:26:06.792Z,0
2018-03-23T03:27:07.394Z,0
2018-03-23T03:28:07.989Z,0
2018-03-23T03:29:08.582Z,0
2018-03-23T03:30:09.173Z,0
2018-03-23T03:31:09.761Z,0
2018-03-23T03:32:10.360Z,0
2018-03-23T03:33:10.954Z,0
2018-03-23T03:34:11.556Z,0
2018-03-23T03:35:12.162Z,0
2018-03-23T03:36:12.753Z,0
2018-03-23T03:37:13.340Z,0
2018-03-23T03:38:13.930Z,0
2018-03-23T03:39:14.518Z,0
2018-03-23T03:40:15.116Z,0
2018-03-23T03:41:15.709Z,0
2018-03-23T03:42:16.299Z,0
2018-03-23T03:43:16.886Z,0
2018-03-23T03:44:17.483Z,0
2018-03-23T03:45:18.079Z,0
2018-03-23T03:46:18.667Z,0
2018-03-23T03:47:19.268Z,0
2018-03-23T03:48:19.861Z,0
2018-03-23T03:49:20.457Z,0
2018-03-23T03:50:21.055Z,0
2018-03-23T03:51:21.649Z,0
2018-03-23T03:52:22.239Z,0
2018-03-23T03:53:22.838Z,0
2018-03-23T03:54:23.430Z,0
2018-03-23T03:55:24.021Z,0
2018-03-23T03:56:24.623Z,0
2018-03-23T03:57:25.218Z,0
2018-03-23T03:58:25.808Z,0
2018-03-23T03:59:26.395Z,0
2018-03-23T04:00:26.983Z,0
2018-03-23T04:01:27.579Z,0
2018-03-23T04:02:28.173Z,0
2018-03-23T04:03:28.769Z,0
2018-03-23T04:04:29.365Z,0
2018-03-23T04:05:29.963Z,0
2018-03-23T04:06:30.557Z,0
2018-03-23T04:07:31.175Z,0
2018-03-23T04:08:31.761Z,0
2018-03-23T04:09:32.362Z,0
2018-03-23T04:10:32.957Z,0
2018-03-23T04:11:33.554Z,0
2018-03-23T04:12:34.150Z,0
2018-03-23T04:13:34.750Z,0
2018-03-23T04:14:35.348Z,0
2018-03-23T04:15:35.945Z,0
2018-03-23T04:16:36.541Z,0
2018-03-23T04:17:37.128Z,0
2018-03-23T04:18:37.727Z,0
2018-03-23T04:19:38.353Z,0
2018-03-23T04:20:38.923Z,0
2018-03-23T04:21:39.511Z,0
2018-03-23T04:22:40.107Z,0
2018-03-23T04:23:40.704Z,0
2018-03-23T04:24:41.293Z,0
2018-03-23T04:25:41.882Z,0
2018-03-23T04:26:42.477Z,0
2018-03-23T04:27:43.065Z,0
2018-03-23T04:28:43.658Z,0
2018-03-23T04:29:44.247Z,0
2018-03-23T04:30:44.848Z,0
2018-03-23T04:31:45.442Z,0
2018-03-23T04:32:46.034Z,0
2018-03-23T04:33:46.624Z,0
2018-03-23T04:34:47.226Z,0
2018-03-23T04:35:47.821Z,0
2018-03-23T04:36:48.419Z,0
2018-03-23T04:37:49.008Z,0
2018-03-23T04:38:49.599Z,0
2018-03-23T04:39:50.193Z,0
2018-03-23T04:40:50.783Z,0
2018-03-23T04:41:51.378Z,0
2018-03-23T04:42:51.967Z,0
2018-03-23T04:43:52.564Z,0
2018-03-23T04:44:53.167Z,0
2018-03-23T04:45:53.749Z,0
2018-03-23T04:46:54.339Z,0
2018-03-23T04:47:54.938Z,0
2018-03-23T04:48:55.524Z,0
2018-03-23T04:49:56.117Z,0
2018-03-23T04:50:56.703Z,0
2018-03-23T04:51:57.293Z,0
2018-03-23T04:52:57.878Z,0
2018-03-23T04:53:58.470Z,0
2018-03-23T04:54:59.056Z,0
2018-03-23T04:55:59.650Z,0
2018-03-23T04:57:00.244Z,0
2018-03-23T04:58:00.842Z,0
2018-03-23T04:59:01.432Z,0
2018-03-23T05:00:02.022Z,0
2018-03-23T05:01:02.621Z,0
2018-03-23T05:02:03.218Z,0
2018-03-23T05:03:03.811Z,0
2018-03-23T05:04:04.412Z,0
2018-03-23T05:05:05.008Z,0
2018-03-23T05:06:05.602Z,0
2018-03-23T05:07:06.194Z,0
2018-03-23T05:08:06.792Z,0
2018-03-23T05:09:07.389Z,0
2018-03-23T05:10:07.993Z,0
2018-03-23T05:11:08.583Z,0
2018-03-23T05:12:09.171Z,0
2018-03-23T05:13:09.762Z,0
2018-03-23T05:14:10.366Z,0
2018-03-23T05:15:10.953Z,0
2018-03-23T05:16:11.542Z,0
2018-03-23T05:17:12.140Z,0
2018-03-23T05:18:12.730Z,0
2018-03-23T05:19:13.321Z,0
2018-03-23T05:20:13.911Z,0
2018-03-23T05:21:14.511Z,0
2018-03-23T05:22:15.104Z,0
2018-03-23T05:23:15.699Z,0
2018-03-23T05:24:16.295Z,0
2018-03-23T05:25:16.894Z,0
2018-03-23T05:26:17.493Z,0
2018-03-23T05:27:18.110Z,0
2018-03-23T05:28:18.710Z,0
2018-03-23T05:29:19.289Z,0
2018-03-23T05:30:19.882Z,0
2018-03-23T05:31:20.483Z,0
2018-03-23T05:32:21.083Z,0
2018-03-23T05:33:21.673Z,0
2018-03-23T05:34:22.274Z,0
2018-03-23T05:35:22.864Z,5
2018-03-23T05:36:23.518Z,5
2018-03-23T05:37:24.048Z,5
2018-03-23T05:38:24.637Z,5
2018-03-23T05:39:25.276Z,5
2018-03-23T05:40:25.837Z,5
2018-03-23T05:41:26.431Z,5
2018-03-23T05:42:27.029Z,5
2018-03-23T05:43:27.625Z,5
2018-03-23T05:44:28.223Z,5
2018-03-23T05:45:28.824Z,10
2018-03-23T05:46:29.423Z,10
2018-03-23T05:47:30.023Z,10
2018-03-23T05:48:30.622Z,10
2018-03-23T05:49:31.214Z,10
2018-03-23T05:50:31.813Z,10
2018-03-23T05:51:32.415Z,10
2018-03-23T05:52:33.012Z,10
2018-03-23T05:53:33.606Z,15
2018-03-23T05:54:34.198Z,15
2018-03-23T05:55:34.797Z,15
2018-03-23T05:56:35.402Z,15
2018-03-23T05:57:35.996Z,20
2018-03-23T05:58:36.588Z,20
2018-03-23T05:59:37.191Z,20
2018-03-23T06:00:37.784Z,20
2018-03-23T06:01:38.379Z,25
2018-03-23T06:02:38.980Z,25
2018-03-23T06:03:39.581Z,25
2018-03-23T06:04:40.178Z,25
2018-03-23T06:05:40.770Z,30
2018-03-23T06:06:41.365Z,30
2018-03-23T06:07:41.954Z,30
2018-03-23T06:08:42.548Z,35
2018-03-23T06:09:43.142Z,35
2018-03-23T06:10:43.738Z,40
2018-03-23T06:11:44.330Z,40
2018-03-23T06:12:44.922Z,45
2018-03-23T06:13:45.518Z,45
2018-03-23T06:14:46.113Z,50
2018-03-23T06:15:46.751Z,50
2018-03-23T06:16:47.315Z,50
2018-03-23T06:17:47.910Z,50
2018-03-23T06:18:48.501Z,55
2018-03-23T06:19:49.107Z,60
2018-03-23T06:20:49.703Z,60
2018-03-23T06:21:50.302Z,65
2018-03-23T06:22:50.932Z,65
2018-03-23T06:23:51.486Z,65
2018-03-23T06:24:52.084Z,70
2018-03-23T06:25:52.676Z,70
2018-03-23T06:26:53.267Z,75
2018-03-23T06:27:53.861Z,75
2018-03-23T06:28:54.453Z,80
2018-03-23T06:29:55.050Z,85
2018-03-23T06:30:55.644Z,85
2018-03-23T06:31:56.247Z,85
2018-03-23T06:32:56.845Z,90
2018-03-23T06:33:57.450Z,95
2018-03-23T06:34:58.058Z,105
2018-03-23T06:35:58.647Z,105
2018-03-23T06:36:59.246Z,110
2018-03-23T06:37:59.847Z,115
2018-03-23T06:39:00.446Z,115
2018-03-23T06:40:01.049Z,120
2018-03-23T06:41:01.653Z,125
2018-03-23T06:42:02.243Z,140
2018-03-23T06:43:02.848Z,150
2018-03-23T06:44:03.447Z,160
2018-03-23T06:45:04.048Z,165
2018-03-23T06:46:04.655Z,170
2018-03-23T06:47:05.270Z,175
2018-03-23T06:48:05.846Z,180
2018-03-23T06:49:06.456Z,175
2018-03-23T06:50:07.055Z,165
2018-03-23T06:51:07.650Z,165
2018-03-23T06:52:08.253Z,165
2018-03-23T06:53:08.849Z,170
2018-03-23T06:54:09.449Z,170
2018-03-23T06:55:10.048Z,170
2018-03-23T06:56:10.646Z,170
2018-03-23T06:57:11.239Z,175
2018-03-23T06:58:11.841Z,180
2018-03-23T06:59:12.435Z,185
2018-03-23T07:00:13.039Z,190
2018-03-23T07:01:13.633Z,190
2018-03-23T07:02:14.240Z,190
2018-03-23T07:03:14.833Z,195
2018-03-23T07:04:15.437Z,190
2018-03-23T07:05:16.045Z,190
2018-03-23T07:06:16.637Z,190
2018-03-23T07:07:17.234Z,190
2018-03-23T07:08:17.838Z,205
2018-03-23T07:09:18.430Z,220
2018-03-23T07:10:19.046Z,245
2018-03-23T07:11:19.620Z,255
2018-03-23T07:12:20.216Z,265
2018-03-23T07:13:20.818Z,275
2018-03-23T07:14:21.421Z,300
2018-03-23T07:15:22.027Z,310
2018-03-23T07:16:22.668Z,325
2018-03-23T07:17:23.222Z,350
2018-03-23T07:18:23.828Z,380
2018-03-23T07:19:24.486Z,415
2018-03-23T07:20:25.040Z,450
2018-03-23T07:21:25.638Z,495
2018-03-23T07:22:26.241Z,535
2018-03-23T07:23:26.843Z,575
2018-03-23T07:24:27.450Z,600
2018-03-23T07:25:28.069Z,620
2018-03-23T07:26:28.704Z,610
2018-03-23T07:27:29.345Z,550
2018-03-23T07:28:29.951Z,500
2018-03-23T07:29:30.596Z,465
2018-03-23T07:30:31.201Z,445
2018-03-23T07:31:31.829Z,370
2018-03-23T07:32:32.429Z,340
2018-03-23T07:33:33.022Z,310
2018-03-23T07:34:33.625Z,290
2018-03-23T07:35:34.223Z,290
2018-03-23T07:36:34.821Z,290
2018-03-23T07:37:35.417Z,300
2018-03-23T07:38:36.017Z,310
2018-03-23T07:39:36.625Z,320
2018-03-23T07:40:37.233Z,325
2018-03-23T07:41:37.834Z,340
2018-03-23T07:42:38.436Z,370
2018-03-23T07:43:39.035Z,405
2018-03-23T07:44:39.633Z,435
2018-03-23T07:45:40.228Z,465
2018-03-23T07:46:40.831Z,475
2018-03-23T07:47:41.440Z,490
2018-03-23T07:48:42.048Z,500
2018-03-23T07:49:42.652Z,495
2018-03-23T07:50:43.252Z,485
2018-03-23T07:51:43.849Z,460
2018-03-23T07:52:44.450Z,475
2018-03-23T07:53:45.128Z,495
2018-03-23T07:54:45.701Z,635
2018-03-23T07:55:46.285Z,665
2018-03-23T07:56:46.900Z,550
2018-03-23T07:57:47.490Z,655
2018-03-23T07:58:48.096Z,705
2018-03-23T07:59:48.693Z,795
2018-03-23T08:00:49.302Z,1040
2018-03-23T08:01:49.905Z,1145
2018-03-23T08:02:50.522Z,1135
2018-03-23T08:03:51.130Z,1140
2018-03-23T08:04:51.743Z,1140
2018-03-23T08:05:52.359Z,1160
2018-03-23T08:06:52.982Z,1195
2018-03-23T08:07:53.569Z,1070
2018-03-23T08:08:54.182Z,920
2018-03-23T08:09:54.801Z,645
2018-03-23T08:10:55.412Z,670
2018-03-23T08:11:56.014Z,700
2018-03-23T08:12:56.625Z,725
2018-03-23T08:13:57.241Z,605
2018-03-23T08:14:57.855Z,620
2018-03-23T08:15:58.464Z,645
2018-03-23T08:16:59.076Z,635
2018-03-23T08:17:59.686Z,735
2018-03-23T08:19:00.297Z,930
2018-03-23T08:20:00.902Z,1090
2018-03-23T08:21:01.510Z,1025
2018-03-23T08:22:02.116Z,885
2018-03-23T08:23:02.730Z,1060
2018-03-23T08:24:03.337Z,1255
2018-03-23T08:25:03.945Z,1390
2018-03-23T08:26:04.559Z,1510
2018-03-23T08:27:05.171Z,1400
2018-03-23T08:28:05.789Z,1350
2018-03-23T08:29:06.409Z,1225
2018-03-23T08:30:07.014Z,1215
2018-03-23T08:31:07.634Z,940
2018-03-23T08:32:08.235Z,825
2018-03-23T08:33:08.841Z,805
2018-03-23T08:34:09.457Z,910
2018-03-23T08:35:10.066Z,765
2018-03-23T08:36:10.674Z,730
2018-03-23T08:37:11.284Z,725
2018-03-23T08:38:11.896Z,710
2018-03-23T08:39:12.499Z,710
2018-03-23T08:40:13.110Z,730
2018-03-23T08:41:13.716Z,730
2018-03-23T08:42:14.336Z,765
2018-03-23T08:43:14.965Z,730
2018-03-23T08:44:15.591Z,725
2018-03-23T08:45:16.205Z,715
2018-03-23T08:46:16.796Z,700
2018-03-23T08:47:17.395Z,705
2018-03-23T08:48:18.006Z,735
2018-03-23T08:49:18.612Z,770
2018-03-23T08:50:19.233Z,805
2018-03-23T08:51:19.834Z,830
2018-03-23T08:52:20.441Z,860
2018-03-23T08:53:21.039Z,880
2018-03-23T08:54:21.645Z,865
2018-03-23T08:55:22.249Z,890
2018-03-23T08:56:22.854Z,910
2018-03-23T08:57:23.463Z,915
2018-03-23T08:58:24.071Z,870
2018-03-23T08:59:24.676Z,825
2018-03-23T09:00:25.280Z,775
2018-03-23T09:01:25.886Z,715
2018-03-23T09:02:26.489Z,635
2018-03-23T09:03:27.100Z,585
2018-03-23T09:04:27.707Z,600
2018-03-23T09:05:28.323Z,635
2018-03-23T09:06:28.930Z,660
2018-03-23T09:07:29.534Z,645
2018-03-23T09:08:30.133Z,615
2018-03-23T09:09:30.739Z,585
2018-03-23T09:10:31.343Z,550
2018-03-23T09:11:31.951Z,530
2018-03-23T09:12:32.561Z,535
2018-03-23T09:13:33.166Z,570
2018-03-23T09:14:33.768Z,615
2018-03-23T09:15:34.370Z,630
2018-03-23T09:16:34.981Z,585
2018-03-23T09:17:35.577Z,550
2018-03-23T09:18:36.185Z,580
2018-03-23T09:19:36.787Z,650
2018-03-23T09:20:37.401Z,740
2018-03-23T09:21:37.999Z,790
2018-03-23T09:22:38.605Z,735
2018-03-23T09:23:39.210Z,645
2018-03-23T09:24:39.818Z,590
2018-03-23T09:25:40.422Z,540
2018-03-23T09:26:41.031Z,545
2018-03-23T09:27:41.638Z,620
2018-03-23T09:28:42.239Z,675
2018-03-23T09:29:42.846Z,680
2018-03-23T09:30:43.456Z,650
2018-03-23T09:31:44.063Z,590
2018-03-23T09:32:44.670Z,550
2018-03-23T09:33:45.276Z,530
2018-03-23T09:34:45.875Z,485
2018-03-23T09:35:46.481Z,475
2018-03-23T09:36:47.080Z,500
2018-03-23T09:37:47.690Z,545
2018-03-23T09:38:48.287Z,590
2018-03-23T09:39:48.889Z,620
2018-03-23T09:40:49.487Z,625
2018-03-23T09:41:50.086Z,615
2018-03-23T09:42:50.691Z,645
2018-03-23T09:43:51.297Z,710
2018-03-23T09:44:51.904Z,685
2018-03-23T09:45:52.523Z,630
2018-03-23T09:46:53.115Z,585
2018-03-23T09:47:53.778Z,555
2018-03-23T09:48:54.334Z,510
2018-03-23T09:49:54.934Z,460
2018-03-23T09:50:55.540Z,425
2018-03-23T09:51:56.147Z,385
2018-03-23T09:52:56.758Z,390
2018-03-23T09:53:57.362Z,420
2018-03-23T09:54:57.961Z,420
2018-03-23T09:55:58.561Z,390
2018-03-23T09:56:59.166Z,365
2018-03-23T09:57:59.798Z,350
2018-03-23T09:59:00.616Z,350
2018-03-23T10:00:01.229Z,330
2018-03-23T10:01:01.850Z,300
2018-03-23T10:02:02.436Z,285
2018-03-23T10:03:03.057Z,280
2018-03-23T10:04:03.754Z,295
2018-03-23T10:05:04.254Z,330
2018-03-23T10:06:04.860Z,350
2018-03-23T10:07:05.466Z,360
2018-03-23T10:08:06.073Z,345
2018-03-23T10:09:06.673Z,325
2018-03-23T10:10:07.279Z,320
2018-03-23T10:11:07.888Z,320
2018-03-23T10:12:08.490Z,310
2018-03-23T10:13:09.084Z,300
2018-03-23T10:14:09.679Z,295
2018-03-23T10:15:10.278Z,300
2018-03-23T10:16:10.874Z,305
2018-03-23T10:17:11.478Z,315
2018-03-23T10:18:12.097Z,320
2018-03-23T10:19:12.702Z,330
2018-03-23T10:20:13.308Z,330
2018-03-23T10:21:13.948Z,325
2018-03-23T10:22:14.503Z,315
2018-03-23T10:23:15.100Z,300
2018-03-23T10:24:15.729Z,295
2018-03-23T10:25:16.338Z,285
2018-03-23T10:26:16.935Z,280
2018-03-23T10:27:17.539Z,275
2018-03-23T10:28:18.143Z,270
2018-03-23T10:29:18.742Z,275
2018-03-23T10:30:19.342Z,275
2018-03-23T10:31:19.950Z,295
2018-03-23T10:32:20.548Z,305
2018-03-23T10:33:21.147Z,305
2018-03-23T10:34:21.749Z,300
2018-03-23T10:35:22.347Z,300
2018-03-23T10:36:22.943Z,315
2018-03-23T10:37:23.550Z,370
2018-03-23T10:38:24.152Z,440
2018-03-23T10:39:24.758Z,465
2018-03-23T10:40:25.363Z,475
2018-03-23T10:41:25.970Z,480
2018-03-23T10:42:26.573Z,465
2018-03-23T10:43:27.178Z,435
2018-03-23T10:44:27.777Z,400
2018-03-23T10:45:28.378Z,385
2018-03-23T10:46:29.002Z,410
2018-03-23T10:47:29.596Z,425
2018-03-23T10:48:30.196Z,415
2018-03-23T10:49:30.797Z,425
2018-03-23T10:50:31.399Z,450
2018-03-23T10:51:32.003Z,480
2018-03-23T10:52:32.600Z,500
2018-03-23T10:53:33.251Z,470
2018-03-23T10:54:33.801Z,445
2018-03-23T10:55:34.404Z,435
2018-03-23T10:56:35.009Z,415
2018-03-23T10:57:35.619Z,405
2018-03-23T10:58:36.223Z,405
2018-03-23T10:59:36.831Z,445
2018-03-23T11:00:37.431Z,460
2018-03-23T11:01:38.037Z,440
2018-03-23T11:02:38.642Z,420
2018-03-23T11:03:39.251Z,425
2018-03-23T11:04:39.873Z,440
2018-03-23T11:05:40.461Z,435
2018-03-23T11:06:41.070Z,410
2018-03-23T11:07:41.674Z,400
2018-03-23T11:08:42.270Z,395
2018-03-23T11:09:42.869Z,395
2018-03-23T11:10:43.462Z,395
2018-03-23T11:11:44.071Z,385
2018-03-23T11:12:44.676Z,385
2018-03-23T11:13:45.281Z,400
2018-03-23T11:14:45.887Z,410
2018-03-23T11:15:46.496Z,405
2018-03-23T11:16:47.098Z,400
2018-03-23T11:17:47.696Z,405
2018-03-23T11:18:48.318Z,420
2018-03-23T11:19:48.925Z,430
2018-03-23T11:20:49.536Z,430
2018-03-23T11:21:50.140Z,420
2018-03-23T11:22:50.747Z,420
2018-03-23T11:23:51.342Z,410
2018-03-23T11:24:51.945Z,405
2018-03-23T11:25:52.544Z,405
2018-03-23T11:26:53.143Z,400
2018-03-23T11:27:53.741Z,385
2018-03-23T11:28:54.357Z,365
2018-03-23T11:29:54.960Z,355
2018-03-23T11:30:55.557Z,350
2018-03-23T11:31:56.153Z,340
2018-03-23T11:32:56.761Z,340
2018-03-23T11:33:57.364Z,350
2018-03-23T11:34:57.961Z,350
2018-03-23T11:35:58.567Z,360
2018-03-23T11:36:59.218Z,370
2018-03-23T11:37:59.785Z,370
2018-03-23T11:39:00.389Z,360
2018-03-23T11:40:00.987Z,345
2018-03-23T11:41:01.592Z,340
2018-03-23T11:42:02.195Z,335
2018-03-23T11:43:02.799Z,340
2018-03-23T11:44:03.408Z,345
2018-03-23T11:45:04.016Z,345
2018-03-23T11:46:04.617Z,345
2018-03-23T11:47:05.217Z,355
2018-03-23T11:48:05.826Z,375
2018-03-23T11:49:06.434Z,385
2018-03-23T11:50:07.056Z,400
2018-03-23T11:51:07.632Z,405
2018-03-23T11:52:08.240Z,420
2018-03-23T11:53:08.837Z,430
2018-03-23T11:54:09.441Z,435
2018-03-23T11:55:10.041Z,430
2018-03-23T11:56:10.637Z,415
2018-03-23T11:57:11.236Z,425
2018-03-23T11:58:11.840Z,450
2018-03-23T11:59:12.450Z,470
2018-03-23T12:00:13.062Z,475
2018-03-23T12:01:13.665Z,485
2018-03-23T12:02:14.260Z,480
2018-03-23T12:03:14.865Z,480
2018-03-23T12:04:15.474Z,495
2018-03-23T12:05:16.078Z,480
2018-03-23T12:06:16.676Z,465
2018-03-23T12:07:17.283Z,445
2018-03-23T12:08:17.897Z,440
2018-03-23T12:09:18.491Z,440
2018-03-23T12:10:19.102Z,460
2018-03-23T12:11:19.709Z,460
2018-03-23T12:12:20.308Z,450
2018-03-23T12:13:20.924Z,465
2018-03-23T12:14:21.536Z,475
2018-03-23T12:15:22.136Z,465
2018-03-23T12:16:22.739Z,480
2018-03-23T12:17:23.342Z,495
2018-03-23T12:18:23.952Z,495
2018-03-23T12:19:24.560Z,490
2018-03-23T12:20:25.163Z,480
2018-03-23T12:21:25.777Z,480
2018-03-23T12:22:26.381Z,475
2018-03-23T12:23:26.984Z,460
2018-03-23T12:24:27.593Z,445
2018-03-23T12:25:28.203Z,440
2018-03-23T12:26:28.797Z,430
2018-03-23T12:27:29.413Z,430
2018-03-23T12:28:30.022Z,425
2018-03-23T12:29:30.619Z,425
2018-03-23T12:30:31.227Z,425
2018-03-23T12:31:31.834Z,430
2018-03-23T12:32:32.435Z,440
2018-03-23T12:33:33.041Z,455
2018-03-23T12:34:33.643Z,455
2018-03-23T12:35:34.253Z,440
2018-03-23T12:36:34.855Z,430
2018-03-23T12:37:35.465Z,440
2018-03-23T12:38:36.067Z,455
2018-03-23T12:39:36.671Z,470
2018-03-23T12:40:37.286Z,485
2018-03-23T12:41:37.894Z,495
2018-03-23T12:42:38.501Z,475
2018-03-23T12:43:39.110Z,450
2018-03-23T12:44:39.705Z,465
2018-03-23T12:45:40.329Z,485
2018-03-23T12:46:40.917Z,485
2018-03-23T12:47:41.518Z,470
2018-03-23T12:48:42.114Z,455
2018-03-23T12:49:42.720Z,430
2018-03-23T12:50:43.321Z,410
2018-03-23T12:51:43.926Z,410
2018-03-23T12:52:44.536Z,405
2018-03-23T12:53:45.142Z,390
2018-03-23T12:54:45.739Z,370
2018-03-23T12:55:46.346Z,355
2018-03-23T12:56:46.961Z,360
2018-03-23T12:57:47.622Z,350
2018-03-23T12:58:48.174Z,350
2018-03-23T12:59:48.792Z,350
2018-03-23T13:00:49.404Z,350
2018-03-23T13:01:50.006Z,335
2018-03-23T13:02:50.613Z,320
2018-03-23T13:03:51.207Z,315
2018-03-23T13:04:51.816Z,315
2018-03-23T13:05:52.419Z,305
2018-03-23T13:06:53.029Z,295
2018-03-23T13:07:53.644Z,295
2018-03-23T13:08:54.258Z,295
2018-03-23T13:09:54.868Z,290
2018-03-23T13:10:55.471Z,280
2018-03-23T13:11:56.068Z,275
2018-03-23T13:12:56.661Z,275
2018-03-23T13:13:57.279Z,270
2018-03-23T13:14:57.882Z,265
2018-03-23T13:15:58.485Z,255
2018-03-23T13:16:59.077Z,255
2018-03-23T13:17:59.689Z,250
2018-03-23T13:19:00.280Z,245
2018-03-23T13:20:00.891Z,245
2018-03-23T13:21:01.508Z,240
2018-03-23T13:22:02.109Z,240
2018-03-23T13:23:02.718Z,240
2018-03-23T13:24:03.324Z,245
2018-03-23T13:25:03.927Z,245
2018-03-23T13:26:04.548Z,260
2018-03-23T13:27:05.138Z,280
2018-03-23T13:28:05.744Z,275
2018-03-23T13:29:06.342Z,270
2018-03-23T13:30:06.957Z,270
2018-03-23T13:31:07.556Z,260
2018-03-23T13:32:08.153Z,245
2018-03-23T13:33:08.747Z,235
2018-03-23T13:34:09.354Z,235
2018-03-23T13:35:09.966Z,240
2018-03-23T13:36:10.563Z,250
2018-03-23T13:37:11.167Z,260
2018-03-23T13:38:11.774Z,260
2018-03-23T13:39:12.381Z,265
2018-03-23T13:40:12.986Z,275
2018-03-23T13:41:13.601Z,275
2018-03-23T13:42:14.193Z,260
2018-03-23T13:43:14.794Z,255
2018-03-23T13:44:15.418Z,265
2018-03-23T13:45:16.057Z,265
2018-03-23T13:46:16.662Z,250
2018-03-23T13:47:17.264Z,245
2018-03-23T13:48:17.872Z,245
2018-03-23T13:49:18.472Z,255
2018-03-23T13:50:19.076Z,270
2018-03-23T13:51:19.671Z,275
2018-03-23T13:52:20.265Z,260
2018-03-23T13:53:20.857Z,250
2018-03-23T13:54:21.466Z,250
2018-03-23T13:55:22.092Z,265
2018-03-23T13:56:22.703Z,270
2018-03-23T13:57:23.274Z,270
2018-03-23T13:58:23.875Z,265
2018-03-23T13:59:24.474Z,270
2018-03-23T14:00:25.086Z,265
2018-03-23T14:01:25.682Z,260
2018-03-23T14:02:26.328Z,250
2018-03-23T14:03:26.893Z,245
2018-03-23T14:04:27.486Z,250
2018-03-23T14:05:28.091Z,260
2018-03-23T14:06:28.685Z,260
2018-03-23T14:07:29.284Z,240
2018-03-23T14:08:29.885Z,245
2018-03-23T14:09:30.501Z,260
2018-03-23T14:10:31.104Z,250
2018-03-23T14:11:31.750Z,265
2018-03-23T14:12:32.314Z,300
2018-03-23T14:13:32.915Z,320
2018-03-23T14:14:33.515Z,325
2018-03-23T14:15:34.125Z,290
2018-03-23T14:16:34.729Z,250
2018-03-23T14:17:35.342Z,235
2018-03-23T14:18:35.946Z,275
2018-03-23T14:19:36.551Z,305